createdAt,value
2017-07-05T00:00:41.031Z,14.20
2017-07-05T00:03:07.320Z,14.10
2017-07-05T00:05:33.600Z,14.10
2017-07-05T00:07:59.868Z,14.00
2017-07-05T00:10:26.150Z,13.90
2017-07-05T00:12:52.433Z,13.90
2017-07-05T00:15:18.744Z,13.80
2017-07-05T00:17:45.041Z,13.70
2017-07-05T00:20:11.319Z,13.70
2017-07-05T00:22:37.590Z,13.70
2017-07-05T00:25:03.868Z,13.70
2017-07-05T00:27:30.165Z,13.60
2017-07-05T00:29:56.441Z,13.60
2017-07-05T00:32:22.708Z,13.60
2017-07-05T00:34:48.979Z,13.50
2017-07-05T00:37:15.272Z,13.50
2017-07-05T00:39:42.605Z,13.50
2017-07-05T00:42:09.609Z,13.50
2017-07-05T00:44:35.883Z,13.50
2017-07-05T00:47:02.885Z,13.60
2017-07-05T00:49:29.206Z,13.60
2017-07-05T00:51:55.493Z,13.60
2017-07-05T00:54:21.771Z,13.60
2017-07-05T00:56:48.045Z,13.60
2017-07-05T00:59:15.061Z,13.60
2017-07-05T01:01:41.326Z,13.60
2017-07-05T01:04:07.667Z,13.50
2017-07-05T01:09:28.207Z,13.50
2017-07-05T01:11:54.474Z,13.50
2017-07-05T01:14:20.743Z,13.50
2017-07-05T01:16:47.014Z,13.50
2017-07-05T01:19:13.322Z,13.50
2017-07-05T01:21:40.062Z,13.50
2017-07-05T01:24:06.341Z,13.50
2017-07-05T01:26:33.349Z,13.50
2017-07-05T01:29:00.616Z,13.50
2017-07-05T01:31:26.907Z,13.50
2017-07-05T01:33:53.184Z,13.50
2017-07-05T01:36:19.468Z,13.60
2017-07-05T01:38:45.769Z,13.60
2017-07-05T01:41:12.069Z,13.50
2017-07-05T01:43:38.366Z,13.50
2017-07-05T01:46:04.699Z,13.50
2017-07-05T01:48:30.995Z,13.50
2017-07-05T01:50:57.286Z,13.50
2017-07-05T01:53:23.546Z,13.50
2017-07-05T01:55:49.904Z,13.50
2017-07-05T01:58:17.901Z,13.40
2017-07-05T02:00:44.165Z,13.50
2017-07-05T02:03:11.162Z,13.40
2017-07-05T02:05:37.418Z,13.40
2017-07-05T02:08:03.694Z,13.40
2017-07-05T02:10:30.112Z,13.40
2017-07-05T02:12:56.385Z,13.40
2017-07-05T02:15:22.675Z,13.40
2017-07-05T02:17:48.978Z,13.40
2017-07-05T02:20:16.020Z,13.40
2017-07-05T02:22:42.279Z,13.40
2017-07-05T02:25:08.577Z,13.40
2017-07-05T02:27:35.595Z,13.40
2017-07-05T02:30:01.885Z,13.30
2017-07-05T02:32:28.173Z,13.30
2017-07-05T02:34:54.481Z,13.30
2017-07-05T02:37:20.748Z,13.40
2017-07-05T02:39:47.022Z,13.30
2017-07-05T02:42:13.302Z,13.30
2017-07-05T02:44:39.569Z,13.30
2017-07-05T02:47:05.821Z,13.30
2017-07-05T02:49:32.082Z,13.20
2017-07-05T02:51:58.366Z,13.20
2017-07-05T02:54:25.521Z,13.20
2017-07-05T02:56:51.790Z,13.20
2017-07-05T02:59:18.837Z,13.10
2017-07-05T03:01:45.083Z,13.10
2017-07-05T03:04:12.113Z,13.00
2017-07-05T03:06:40.141Z,13.00
2017-07-05T03:09:06.401Z,13.00
2017-07-05T03:11:33.669Z,13.00
2017-07-05T03:13:59.983Z,13.00
2017-07-05T03:16:26.213Z,13.00
2017-07-05T03:18:53.536Z,13.10
2017-07-05T03:21:19.826Z,13.20
2017-07-05T03:23:46.088Z,13.20
2017-07-05T03:26:12.362Z,13.20
2017-07-05T03:28:38.734Z,13.30
2017-07-05T03:31:05.029Z,13.30
2017-07-05T03:33:31.302Z,13.30
2017-07-05T03:35:57.637Z,13.30
2017-07-05T03:38:23.909Z,13.40
2017-07-05T03:40:50.918Z,13.40
2017-07-05T03:43:17.208Z,13.40
2017-07-05T03:45:43.473Z,13.40
2017-07-05T03:48:09.751Z,13.50
2017-07-05T03:50:36.763Z,13.50
2017-07-05T03:53:03.033Z,13.50
2017-07-05T03:55:30.122Z,13.50
2017-07-05T03:57:56.382Z,13.50
2017-07-05T04:00:22.682Z,13.50
2017-07-05T04:02:48.942Z,13.60
2017-07-05T04:05:15.198Z,13.50
2017-07-05T04:07:41.516Z,13.50
2017-07-05T04:10:07.788Z,13.50
2017-07-05T04:12:35.093Z,13.50
2017-07-05T04:15:01.357Z,13.50
2017-07-05T04:17:27.613Z,13.50
2017-07-05T04:19:53.909Z,13.70
2017-07-05T04:22:20.173Z,13.80
2017-07-05T04:24:46.706Z,13.90
2017-07-05T04:27:12.982Z,13.90
2017-07-05T04:29:40.010Z,14.00
2017-07-05T04:32:06.302Z,14.00
2017-07-05T04:34:32.564Z,14.10
2017-07-05T04:36:58.834Z,14.10
2017-07-05T04:39:25.113Z,14.20
2017-07-05T04:41:51.387Z,14.20
2017-07-05T04:44:17.669Z,14.30
2017-07-05T04:46:43.943Z,14.40
2017-07-05T04:49:10.234Z,14.40
2017-07-05T04:51:36.527Z,14.60
2017-07-05T04:54:02.805Z,14.60
2017-07-05T04:56:29.118Z,14.70
2017-07-05T04:58:55.427Z,14.70
2017-07-05T05:01:21.697Z,14.70
2017-07-05T05:03:47.970Z,14.80
2017-07-05T05:06:14.262Z,14.90
2017-07-05T05:08:41.281Z,15.00
2017-07-05T05:11:08.574Z,15.00
2017-07-05T05:13:34.841Z,15.10
2017-07-05T05:16:01.115Z,15.20
2017-07-05T05:18:28.133Z,15.50
2017-07-05T05:20:54.406Z,15.40
2017-07-05T05:23:20.954Z,15.50
2017-07-05T05:25:47.377Z,15.70
2017-07-05T05:28:13.662Z,15.80
2017-07-05T05:30:39.945Z,15.90
2017-07-05T05:33:06.234Z,16.10
2017-07-05T05:35:33.350Z,16.30
2017-07-05T05:37:59.614Z,16.30
2017-07-05T05:40:25.943Z,16.50
2017-07-05T05:42:52.229Z,16.60
2017-07-05T05:45:18.523Z,16.70
2017-07-05T05:47:44.774Z,16.90
2017-07-05T05:50:11.044Z,17.10
2017-07-05T05:52:37.314Z,17.30
2017-07-05T05:55:03.616Z,17.40
2017-07-05T05:57:29.906Z,17.60
2017-07-05T05:59:56.190Z,17.80
2017-07-05T06:02:23.261Z,18.10
2017-07-05T06:04:49.549Z,18.20
2017-07-05T06:07:15.838Z,18.40
2017-07-05T06:09:42.101Z,18.50
2017-07-05T06:12:08.353Z,18.80
2017-07-05T06:14:35.351Z,19.00
2017-07-05T06:17:01.617Z,19.00
2017-07-05T06:19:29.642Z,19.40
2017-07-05T06:21:55.908Z,19.40
2017-07-05T06:24:22.162Z,19.60
2017-07-05T06:26:48.427Z,19.70
2017-07-05T06:29:14.693Z,20.00
2017-07-05T06:31:40.969Z,20.00
2017-07-05T06:34:07.242Z,20.10
2017-07-05T06:36:33.509Z,20.20
2017-07-05T06:38:59.777Z,20.50
2017-07-05T06:41:26.049Z,20.60
2017-07-05T06:43:53.238Z,20.80
2017-07-05T06:46:19.497Z,20.70
2017-07-05T06:48:45.746Z,21.00
2017-07-05T06:51:12.747Z,21.20
2017-07-05T06:53:39.015Z,21.10
2017-07-05T06:56:05.305Z,21.20
2017-07-05T06:58:31.576Z,21.40
2017-07-05T07:00:57.836Z,21.50
2017-07-05T07:03:24.101Z,21.60
2017-07-05T07:05:51.402Z,21.70
2017-07-05T07:08:19.409Z,22.00
2017-07-05T07:10:45.665Z,22.00
2017-07-05T07:13:11.918Z,22.30
2017-07-05T07:15:38.921Z,22.50
2017-07-05T07:18:05.175Z,22.50
2017-07-05T07:20:31.493Z,22.80
2017-07-05T07:22:57.750Z,22.90
2017-07-05T07:25:25.766Z,23.20
2017-07-05T07:27:52.058Z,23.10
2017-07-05T07:30:18.326Z,23.40
2017-07-05T07:32:44.583Z,23.50
2017-07-05T07:35:11.860Z,23.60
2017-07-05T07:37:38.876Z,23.50
2017-07-05T07:40:05.145Z,23.50
2017-07-05T07:42:33.173Z,23.50
2017-07-05T07:44:59.436Z,23.50
2017-07-05T07:47:27.473Z,23.60
2017-07-05T07:49:53.745Z,23.50
2017-07-05T07:52:20.004Z,23.70
2017-07-05T07:54:46.249Z,24.10
2017-07-05T07:57:12.514Z,24.40
2017-07-05T07:59:39.580Z,24.70
2017-07-05T08:02:05.845Z,24.70
2017-07-05T08:04:32.102Z,24.50
2017-07-05T08:06:58.362Z,24.50
2017-07-05T08:09:24.622Z,24.70
2017-07-05T08:11:50.897Z,24.80
2017-07-05T08:14:17.904Z,24.90
2017-07-05T08:16:44.169Z,24.90
2017-07-05T08:19:10.426Z,25.10
2017-07-05T08:21:36.690Z,25.10
2017-07-05T08:24:02.971Z,25.00
2017-07-05T08:26:29.971Z,25.30
2017-07-05T08:28:56.233Z,25.30
2017-07-05T08:31:22.493Z,25.10
2017-07-05T08:33:48.745Z,25.30
2017-07-05T08:36:15.025Z,25.30
2017-07-05T08:38:42.034Z,25.40
2017-07-05T08:41:08.285Z,25.40
2017-07-05T08:43:34.545Z,25.40
2017-07-05T08:46:00.809Z,25.60
2017-07-05T08:48:27.119Z,25.70
2017-07-05T08:50:53.371Z,25.90
2017-07-05T08:53:19.638Z,26.00
2017-07-05T08:55:46.651Z,26.00
2017-07-05T08:58:12.914Z,26.00
2017-07-05T09:00:39.929Z,26.10
2017-07-05T09:03:06.178Z,26.10
2017-07-05T09:05:32.470Z,26.10
2017-07-05T09:07:58.738Z,25.90
2017-07-05T09:10:25.006Z,25.90
2017-07-05T09:12:51.282Z,26.00
2017-07-05T09:15:17.535Z,26.00
2017-07-05T09:17:43.787Z,25.80
2017-07-05T09:20:10.055Z,25.80
2017-07-05T09:22:36.305Z,26.30
2017-07-05T09:25:02.597Z,26.50
2017-07-05T09:27:28.925Z,26.40
2017-07-05T09:29:55.181Z,26.50
2017-07-05T09:32:21.442Z,26.50
2017-07-05T09:34:48.442Z,26.70
2017-07-05T09:37:14.714Z,26.70
2017-07-05T09:39:40.965Z,26.60
2017-07-05T09:42:07.246Z,26.70
2017-07-05T09:44:33.518Z,26.60
2017-07-05T09:46:59.781Z,26.50
2017-07-05T09:49:26.060Z,26.50
2017-07-05T09:51:53.067Z,26.40
2017-07-05T09:54:19.343Z,26.40
2017-07-05T09:56:45.604Z,26.70
2017-07-05T09:59:11.862Z,26.90
2017-07-05T10:01:38.151Z,26.90
2017-07-05T10:04:04.407Z,27.00
2017-07-05T10:06:30.685Z,27.10
2017-07-05T10:08:57.735Z,27.10
2017-07-05T10:11:24.007Z,27.10
2017-07-05T10:13:50.266Z,26.70
2017-07-05T10:16:16.585Z,26.90
2017-07-05T10:18:42.845Z,27.10
2017-07-05T10:21:09.845Z,27.50
2017-07-05T10:23:36.124Z,27.40
2017-07-05T10:26:02.385Z,27.60
2017-07-05T10:28:28.661Z,27.30
2017-07-05T10:30:55.661Z,27.40
2017-07-05T10:33:21.922Z,27.40
2017-07-05T10:35:48.182Z,27.40
2017-07-05T10:38:14.453Z,27.90
2017-07-05T10:40:40.738Z,27.70
2017-07-05T10:43:08.039Z,28.10
2017-07-05T10:45:34.335Z,28.20
2017-07-05T10:48:00.597Z,28.20
2017-07-05T10:50:26.871Z,28.00
2017-07-05T10:52:53.910Z,28.20
2017-07-05T10:55:20.901Z,28.50
2017-07-05T10:57:47.170Z,28.50
2017-07-05T11:00:13.426Z,28.40
2017-07-05T11:02:40.422Z,28.50
2017-07-05T11:05:06.694Z,28.40
2017-07-05T11:07:33.690Z,27.90
2017-07-05T11:09:59.946Z,27.90
2017-07-05T11:12:26.201Z,27.80
2017-07-05T11:14:53.208Z,27.70
2017-07-05T11:17:19.491Z,27.60
2017-07-05T11:19:45.750Z,27.90
2017-07-05T11:22:12.001Z,28.00
2017-07-05T11:24:38.274Z,27.90
2017-07-05T11:27:05.295Z,28.00
2017-07-05T11:29:32.318Z,28.10
2017-07-05T11:31:58.585Z,28.10
2017-07-05T11:34:24.867Z,28.40
2017-07-05T11:36:51.182Z,28.10
2017-07-05T11:39:17.443Z,28.50
2017-07-05T11:41:43.746Z,28.30
2017-07-05T11:44:10.005Z,28.10
2017-07-05T11:46:36.259Z,28.00
2017-07-05T11:49:02.520Z,28.00
2017-07-05T11:51:28.776Z,28.40
2017-07-05T11:53:55.122Z,28.50
2017-07-05T11:56:21.389Z,28.30
2017-07-05T11:58:47.646Z,28.40
2017-07-05T12:01:13.914Z,28.40
2017-07-05T12:03:40.922Z,28.70
2017-07-05T12:06:07.202Z,28.70
2017-07-05T12:08:34.219Z,28.30
2017-07-05T12:11:00.470Z,28.30
2017-07-05T12:13:27.466Z,28.30
2017-07-05T12:15:53.732Z,28.30
2017-07-05T12:18:20.023Z,28.30
2017-07-05T12:20:46.299Z,28.60
2017-07-05T12:23:13.343Z,28.30
2017-07-05T12:25:40.435Z,28.50
2017-07-05T12:28:06.782Z,28.50
2017-07-05T12:30:33.106Z,28.40
2017-07-05T12:32:59.386Z,28.60
2017-07-05T12:35:26.397Z,29.30
2017-07-05T12:37:52.672Z,29.20
2017-07-05T12:40:19.673Z,29.80
2017-07-05T12:42:46.965Z,29.80
2017-07-05T12:45:13.976Z,31.60
2017-07-05T12:47:40.265Z,31.50
2017-07-05T12:50:06.518Z,32.20
2017-07-05T12:52:32.786Z,33.00
2017-07-05T12:54:59.070Z,32.40
2017-07-05T12:57:25.367Z,32.40
2017-07-05T12:59:51.645Z,32.90
2017-07-05T13:02:17.925Z,33.30
2017-07-05T13:04:44.353Z,34.50
2017-07-05T13:07:10.611Z,34.90
2017-07-05T13:09:36.903Z,34.10
2017-07-05T13:12:03.921Z,33.60
2017-07-05T13:14:30.199Z,33.60
2017-07-05T13:16:56.458Z,34.30
2017-07-05T13:19:22.709Z,34.90
2017-07-05T13:21:48.990Z,34.60
2017-07-05T13:24:15.266Z,35.10
2017-07-05T13:26:41.550Z,35.40
2017-07-05T13:29:07.813Z,34.70
2017-07-05T13:31:34.067Z,34.20
2017-07-05T13:34:00.366Z,34.50
2017-07-05T13:36:26.626Z,33.50
2017-07-05T13:38:52.886Z,33.90
2017-07-05T13:41:19.145Z,33.80
2017-07-05T13:43:45.406Z,34.10
2017-07-05T13:46:11.701Z,33.60
2017-07-05T13:48:37.964Z,33.40
2017-07-05T13:51:04.235Z,34.10
2017-07-05T13:53:30.485Z,33.70
2017-07-05T13:55:56.736Z,34.00
2017-07-05T13:58:23.017Z,33.50
2017-07-05T14:00:49.269Z,34.30
2017-07-05T14:03:16.550Z,35.10
2017-07-05T14:05:42.823Z,36.40
2017-07-05T14:08:09.077Z,36.00
2017-07-05T14:10:35.406Z,35.00
2017-07-05T14:13:02.397Z,35.80
2017-07-05T14:15:29.390Z,36.00
2017-07-05T14:17:55.670Z,36.00
2017-07-05T14:20:21.934Z,36.90
2017-07-05T14:22:48.218Z,36.80
2017-07-05T14:25:14.478Z,36.50
2017-07-05T14:27:40.753Z,37.00
2017-07-05T14:30:07.006Z,36.60
2017-07-05T14:32:33.501Z,36.70
2017-07-05T14:35:00.081Z,37.80
2017-07-05T14:37:26.332Z,38.00
2017-07-05T14:39:52.582Z,37.40
2017-07-05T14:42:18.878Z,37.00
2017-07-05T14:44:46.906Z,37.30
2017-07-05T14:47:13.219Z,37.30
2017-07-05T14:49:39.482Z,36.70
2017-07-05T14:52:05.748Z,36.50
2017-07-05T14:54:32.014Z,36.30
2017-07-05T14:56:58.283Z,36.30
2017-07-05T14:59:24.562Z,36.00
2017-07-05T15:01:50.827Z,36.50
2017-07-05T15:04:17.101Z,37.00
2017-07-05T15:09:09.134Z,36.30
2017-07-05T15:11:35.415Z,36.90
2017-07-05T15:14:01.670Z,37.30
2017-07-05T15:16:28.694Z,36.20
2017-07-05T15:18:54.968Z,36.20
2017-07-05T15:21:21.233Z,37.00
2017-07-05T15:23:47.517Z,36.80
2017-07-05T15:26:13.794Z,35.40
2017-07-05T15:28:40.062Z,34.40
2017-07-05T15:31:06.344Z,33.10
2017-07-05T15:33:32.606Z,32.40
2017-07-05T15:35:58.871Z,32.20
2017-07-05T15:38:25.167Z,32.60
2017-07-05T15:40:51.431Z,32.70
2017-07-05T15:43:17.714Z,32.60
2017-07-05T15:45:43.983Z,32.00
2017-07-05T15:48:10.250Z,31.20
2017-07-05T15:50:36.509Z,31.00
2017-07-05T15:53:02.770Z,30.70
2017-07-05T15:55:29.071Z,30.80
2017-07-05T15:57:55.338Z,30.80
2017-07-05T16:00:21.605Z,31.00
2017-07-05T16:02:47.874Z,31.50
2017-07-05T16:05:14.155Z,32.00
2017-07-05T16:07:40.457Z,32.00
2017-07-05T16:10:06.718Z,32.40
2017-07-05T16:12:32.985Z,33.30
2017-07-05T16:14:59.982Z,34.20
2017-07-05T16:17:26.231Z,34.20
2017-07-05T16:19:52.538Z,34.30
2017-07-05T16:22:18.805Z,34.10
2017-07-05T16:24:45.063Z,33.70
2017-07-05T16:27:11.333Z,32.80
2017-07-05T16:29:37.593Z,33.00
2017-07-05T16:32:04.634Z,33.20
2017-07-05T16:34:30.890Z,33.20
2017-07-05T16:36:57.150Z,33.90
2017-07-05T16:39:23.418Z,35.30
2017-07-05T16:41:49.707Z,34.90
2017-07-05T16:44:15.996Z,35.10
2017-07-05T16:46:42.267Z,36.00
2017-07-05T16:49:08.522Z,36.00
2017-07-05T16:51:34.787Z,34.50
2017-07-05T16:54:01.787Z,33.10
2017-07-05T16:56:28.076Z,33.00
2017-07-05T16:58:54.336Z,31.10
2017-07-05T17:01:20.594Z,29.70
2017-07-05T17:03:46.862Z,29.00
2017-07-05T17:06:13.122Z,28.50
2017-07-05T17:08:39.405Z,28.30
2017-07-05T17:11:05.675Z,28.90
2017-07-05T17:13:31.926Z,30.50
2017-07-05T17:15:58.219Z,30.80
2017-07-05T17:18:24.482Z,30.50
2017-07-05T17:20:50.771Z,30.20
2017-07-05T17:23:17.034Z,29.60
2017-07-05T17:25:43.294Z,29.30
2017-07-05T17:28:10.307Z,28.90
2017-07-05T17:30:36.566Z,28.90
2017-07-05T17:33:03.613Z,28.40
2017-07-05T17:35:30.629Z,28.30
2017-07-05T17:37:56.888Z,28.20
2017-07-05T17:40:23.149Z,28.20
2017-07-05T17:42:49.434Z,28.20
2017-07-05T17:45:15.714Z,28.10
2017-07-05T17:47:41.987Z,27.70
2017-07-05T17:50:09.172Z,27.50
2017-07-05T17:52:35.441Z,27.20
2017-07-05T17:55:01.705Z,27.20
2017-07-05T17:57:27.991Z,27.00
2017-07-05T17:59:54.285Z,26.80
2017-07-05T18:02:20.588Z,26.70
2017-07-05T18:04:47.909Z,26.60
2017-07-05T18:07:14.174Z,26.50
2017-07-05T18:09:40.538Z,26.40
2017-07-05T18:12:06.814Z,26.40
2017-07-05T18:14:33.133Z,27.80
2017-07-05T18:17:00.221Z,28.30
2017-07-05T18:19:28.255Z,27.70
2017-07-05T18:21:54.524Z,27.60
2017-07-05T18:24:21.558Z,27.20
2017-07-05T18:26:47.818Z,27.20
2017-07-05T18:29:14.086Z,27.00
2017-07-05T18:31:40.346Z,26.90
2017-07-05T18:34:07.386Z,26.70
2017-07-05T18:36:33.685Z,26.60
2017-07-05T18:38:59.933Z,26.50
2017-07-05T18:41:26.198Z,26.20
2017-07-05T18:43:52.477Z,25.90
2017-07-05T18:46:18.767Z,25.70
2017-07-05T18:48:45.058Z,25.50
2017-07-05T18:51:11.318Z,25.60
2017-07-05T18:53:37.603Z,25.50
2017-07-05T18:56:03.861Z,25.30
2017-07-05T18:58:30.123Z,25.10
2017-07-05T19:00:56.422Z,25.00
2017-07-05T19:03:23.427Z,24.50
2017-07-05T19:05:49.681Z,24.40
2017-07-05T19:08:16.689Z,24.30
2017-07-05T19:10:42.965Z,24.30
2017-07-05T19:13:09.984Z,24.30
2017-07-05T19:15:36.249Z,24.30
2017-07-05T19:18:02.514Z,24.30
2017-07-05T19:20:28.775Z,24.30
2017-07-05T19:22:55.037Z,24.30
2017-07-05T19:25:21.362Z,24.30
2017-07-05T19:27:48.379Z,24.00
2017-07-05T19:30:14.639Z,23.90
2017-07-05T19:32:40.900Z,23.70
2017-07-05T19:35:08.215Z,23.60
2017-07-05T19:37:34.505Z,23.60
2017-07-05T19:40:00.766Z,23.50
2017-07-05T19:42:27.030Z,23.50
2017-07-05T19:44:53.323Z,23.40
2017-07-05T19:47:20.329Z,23.20
2017-07-05T19:49:46.613Z,23.20
2017-07-05T19:52:13.643Z,22.90
2017-07-05T19:54:39.903Z,22.80
2017-07-05T19:57:06.182Z,22.30
2017-07-05T19:59:32.575Z,22.10
2017-07-05T20:01:58.849Z,22.00
2017-07-05T20:04:25.113Z,21.90
2017-07-05T20:06:51.372Z,22.00
2017-07-05T20:09:17.629Z,21.80
2017-07-05T20:11:43.943Z,21.70
2017-07-05T20:14:10.246Z,21.80
2017-07-05T20:16:36.534Z,21.80
2017-07-05T20:19:03.545Z,21.50
2017-07-05T20:21:29.802Z,21.50
2017-07-05T20:23:56.057Z,21.30
2017-07-05T20:26:22.350Z,21.30
2017-07-05T20:28:48.618Z,21.30
2017-07-05T20:31:14.890Z,21.20
2017-07-05T20:33:41.179Z,21.20
2017-07-05T20:36:07.439Z,21.20
2017-07-05T20:38:33.718Z,21.00
2017-07-05T20:41:00.718Z,20.80
2017-07-05T20:43:28.367Z,20.90
2017-07-05T20:45:54.687Z,20.80
2017-07-05T20:48:20.992Z,20.80
2017-07-05T20:50:48.353Z,20.70
2017-07-05T20:53:14.652Z,20.70
2017-07-05T20:55:40.965Z,20.60
2017-07-05T20:58:07.287Z,20.60
2017-07-05T21:00:33.599Z,20.40
2017-07-05T21:02:59.916Z,20.20
2017-07-05T21:05:26.232Z,20.20
2017-07-05T21:07:52.535Z,20.10
2017-07-05T21:10:18.850Z,20.10
2017-07-05T21:12:45.159Z,20.00
2017-07-05T21:15:11.477Z,20.20
2017-07-05T21:17:37.775Z,20.10
2017-07-05T21:20:04.087Z,20.10
2017-07-05T21:22:32.151Z,20.20
2017-07-05T21:24:58.481Z,20.10
2017-07-05T21:27:24.818Z,20.10
2017-07-05T21:29:51.904Z,19.90
2017-07-05T21:32:18.203Z,19.90
2017-07-05T21:34:45.243Z,19.60
2017-07-05T21:37:12.310Z,19.40
2017-07-05T21:39:38.644Z,19.40
2017-07-05T21:42:04.947Z,19.40
2017-07-05T21:44:31.259Z,19.30
2017-07-05T21:46:57.558Z,19.30
2017-07-05T21:49:23.875Z,19.30
2017-07-05T21:51:50.204Z,19.20
2017-07-05T21:54:16.525Z,19.20
2017-07-05T21:56:42.833Z,19.10
2017-07-05T21:59:09.883Z,19.10
2017-07-05T22:01:36.935Z,19.20
2017-07-05T22:04:03.264Z,19.10
2017-07-05T22:06:30.339Z,19.10
2017-07-05T22:08:56.693Z,19.10
2017-07-05T22:11:24.043Z,19.00
2017-07-05T22:13:51.409Z,18.90
2017-07-05T22:16:17.736Z,18.80
2017-07-05T22:18:44.039Z,18.80
2017-07-05T22:21:10.357Z,18.80
2017-07-05T22:23:37.681Z,18.80
2017-07-05T22:26:05.580Z,18.90
2017-07-05T22:28:31.945Z,18.90
2017-07-05T22:30:58.262Z,19.00
2017-07-05T22:33:24.579Z,19.00
2017-07-05T22:35:50.875Z,19.00
2017-07-05T22:38:17.921Z,19.10
2017-07-05T22:40:44.980Z,19.10
2017-07-05T22:43:11.292Z,19.10
2017-07-05T22:45:38.351Z,19.10
2017-07-05T22:48:04.652Z,19.00
2017-07-05T22:50:30.957Z,19.00
2017-07-05T22:52:57.275Z,19.00
2017-07-05T22:55:23.573Z,19.00
2017-07-05T22:57:49.883Z,19.00
2017-07-05T23:00:16.933Z,19.00
2017-07-05T23:02:43.993Z,19.00
2017-07-05T23:05:10.323Z,18.90
2017-07-05T23:07:36.627Z,19.00
2017-07-05T23:10:02.936Z,18.80
2017-07-05T23:12:29.256Z,18.70
2017-07-05T23:14:55.587Z,18.60
2017-07-05T23:17:21.920Z,18.60
2017-07-05T23:19:48.244Z,18.50
2017-07-05T23:22:14.509Z,18.50
2017-07-05T23:24:40.769Z,18.50
2017-07-05T23:27:07.062Z,18.50
2017-07-05T23:29:33.357Z,18.40
2017-07-05T23:31:59.622Z,18.40
2017-07-05T23:34:25.872Z,18.30
2017-07-05T23:36:52.868Z,18.20
2017-07-05T23:39:19.129Z,18.10
2017-07-05T23:41:45.414Z,18.10
2017-07-05T23:44:11.687Z,18.10
2017-07-05T23:46:37.962Z,18.10
2017-07-05T23:49:04.243Z,18.20
2017-07-05T23:51:30.508Z,18.20
2017-07-05T23:53:56.807Z,18.10
2017-07-05T23:56:23.818Z,18.10
2017-07-05T23:58:50.082Z,18.10
